Time;durP1;ratioP1;P1;durP2;ratioP2;P2;SDS_P1;SDS_P2;PMS_P1;PMS_P2;Temp;Humidity;BMP_temperature;BMP_pressure;BME280_temperature;BME280_humidity;BME280_pressure;Samples;Min_cycle;Max_cycle;Signal;HPM_P1;HPM_P2
2022/10/05 00:01:33;;;;;;;8.40;4.03;;;9.40;99.90;;;;;;5102956;28;20437;-66
2022/10/05 00:04:11;;;;;;;8.47;4.37;;;9.40;99.90;;;;;;5111759;28;20532;-66
2022/10/05 00:06:36;;;;;;;12.90;4.33;;;9.40;99.90;;;;;;5105758;28;20962;-66
2022/10/05 00:09:12;;;;;;;10.87;4.60;;;9.40;99.90;;;;;;5103100;28;20422;-66
2022/10/05 00:11:37;;;;;;;10.67;5.03;;;9.40;99.90;;;;;;5096581;28;20252;-66
2022/10/05 00:14:27;;;;;;;7.93;4.70;;;9.40;99.90;;;;;;5101325;28;20414;-66
2022/10/05 00:16:54;;;;;;;6.27;3.50;;;9.40;99.90;;;;;;5087711;28;20219;-66
2022/10/05 00:19:24;;;;;;;13.83;5.30;;;9.40;99.90;;;;;;5107698;28;20796;-66
2022/10/05 00:21:49;;;;;;;10.20;5.20;;;9.40;99.90;;;;;;5099849;28;20420;-66
2022/10/05 00:24:18;;;;;;;12.60;5.83;;;9.30;99.90;;;;;;5098247;28;20415;-66
2022/10/05 00:26:44;;;;;;;15.83;6.27;;;9.30;99.90;;;;;;5088692;28;20229;-66
2022/10/05 00:29:20;;;;;;;10.93;4.30;;;9.30;99.90;;;;;;5105627;28;20919;-66
2022/10/05 00:31:46;;;;;;;13.97;4.50;;;9.30;99.90;;;;;;5091324;28;20180;-65
2022/10/05 00:34:11;;;;;;;13.90;5.03;;;9.40;99.90;;;;;;5107963;28;20957;-65
2022/10/05 00:36:38;;;;;;;9.70;5.40;;;9.30;99.90;;;;;;5100083;28;20272;-65
2022/10/05 00:39:04;;;;;;;12.03;5.33;;;9.30;99.90;;;;;;5092737;28;20615;-65
2022/10/05 00:41:56;;;;;;;11.57;4.33;;;9.20;99.90;;;;;;5101515;28;20508;-66
2022/10/05 00:44:53;;;;;;;8.90;5.03;;;9.20;99.90;;;;;;5059319;28;20274;-65
2022/10/05 00:47:37;;;;;;;44.87;6.17;;;9.10;99.90;;;;;;5077201;28;20461;-65
2022/10/05 00:50:17;;;;;;;9.20;4.33;;;9.10;99.90;;;;;;5093879;28;20501;-65
2022/10/05 00:53:09;;;;;;;13.40;5.87;;;9.20;99.90;;;;;;5100519;28;20420;-65
2022/10/05 00:55:55;;;;;;;40.67;6.93;;;9.20;99.90;;;;;;5097754;28;20782;-65
2022/10/05 00:58:45;;;;;;;9.93;5.30;;;9.30;99.90;;;;;;5099927;28;20491;-65
2022/10/05 01:01:16;;;;;;;8.73;4.37;;;9.30;99.90;;;;;;5085322;28;20437;-66
2022/10/05 01:03:56;;;;;;;13.83;6.70;;;9.30;99.90;;;;;;5109864;28;20818;-65
2022/10/05 01:06:47;;;;;;;9.80;6.30;;;9.40;99.90;;;;;;5092301;28;20414;-65
2022/10/05 01:09:49;;;;;;;13.37;5.77;;;9.50;99.90;;;;;;5091718;28;20412;-65
2022/10/05 01:12:26;;;;;;;15.93;6.60;;;9.50;99.90;;;;;;5100227;28;20462;-65
2022/10/05 01:15:01;;;;;;;11.57;6.37;;;9.50;99.90;;;;;;5100465;28;20751;-65
2022/10/05 01:17:51;;;;;;;15.30;6.07;;;9.50;99.90;;;;;;5094985;28;20457;-65
2022/10/05 01:20:42;;;;;;;15.47;6.63;;;9.50;99.90;;;;;;5101559;28;20413;-65
2022/10/05 01:23:16;;;;;;;12.07;5.63;;;9.50;99.90;;;;;;5109168;28;20440;-65
2022/10/05 01:26:03;;;;;;;10.43;5.70;;;9.40;99.90;;;;;;5090536;28;20463;-65
2022/10/05 01:28:55;;;;;;;12.93;6.87;;;9.50;99.90;;;;;;5094808;28;20504;-65
2022/10/05 01:31:33;;;;;;;14.40;6.57;;;9.40;99.90;;;;;;5058689;28;20478;-65
2022/10/05 01:34:10;;;;;;;11.50;7.20;;;9.40;99.90;;;;;;5106942;28;20494;-65
2022/10/05 01:36:50;;;;;;;13.07;6.73;;;9.40;99.90;;;;;;5111900;28;20441;-65
2022/10/05 01:39:28;;;;;;;14.43;6.13;;;9.40;99.90;;;;;;5109578;28;20429;-65
2022/10/05 01:42:27;;;;;;;11.83;6.57;;;9.40;99.90;;;;;;5108418;28;20512;-65
2022/10/05 01:44:58;;;;;;;10.63;6.07;;;9.40;99.90;;;;;;5097175;28;20409;-65
2022/10/05 01:47:41;;;;;;;14.17;6.87;;;9.50;99.90;;;;;;5112671;28;20512;-65
2022/10/05 01:50:30;;;;;;;12.20;5.87;;;9.50;99.90;;;;;;5105579;28;20422;-65
2022/10/05 01:53:07;;;;;;;9.93;5.47;;;9.50;99.90;;;;;;5105442;28;20508;-65
2022/10/05 01:55:51;;;;;;;12.30;6.30;;;9.50;99.90;;;;;;5095703;28;20793;-65
2022/10/05 01:58:53;;;;;;;12.77;5.30;;;9.50;99.90;;;;;;5108273;28;20471;-65
2022/10/05 02:01:21;;;;;;;11.30;4.73;;;9.50;99.90;;;;;;5087508;28;20441;-65
2022/10/05 02:04:00;;;;;;;11.97;6.23;;;9.50;99.90;;;;;;5101338;28;20938;-66
2022/10/05 02:06:31;;;;;;;14.30;5.93;;;9.60;99.90;;;;;;5106166;28;20500;-66
2022/10/05 02:09:22;;;;;;;10.73;5.60;;;9.50;99.90;;;;;;5114471;28;20444;-66
2022/10/05 02:11:55;;;;;;;13.17;6.60;;;9.60;99.90;;;;;;5104584;28;20933;-66
2022/10/05 02:14:31;;;;;;;11.70;6.10;;;9.70;99.90;;;;;;5102567;28;20425;-66
2022/10/05 02:16:59;;;;;;;13.60;5.93;;;9.70;99.90;;;;;;5086822;28;20426;-66
2022/10/05 02:19:36;;;;;;;11.37;5.70;;;9.70;99.90;;;;;;5100526;28;20738;-66
2022/10/05 02:22:09;;;;;;;8.37;5.20;;;9.60;99.90;;;;;;5113888;28;20410;-66
2022/10/05 02:24:38;;;;;;;13.83;5.77;;;9.60;99.90;;;;;;5094107;28;20452;-66
2022/10/05 02:27:06;;;;;;;12.63;5.20;;;9.60;99.90;;;;;;5104929;28;20411;-66
2022/10/05 02:29:34;;;;;;;8.50;5.40;;;9.60;99.90;;;;;;5113591;28;20543;-66
2022/10/05 02:32:05;;;;;;;9.10;4.70;;;9.60;99.90;;;;;;5112806;28;20421;-66
2022/10/05 02:34:38;;;;;;;11.83;5.50;;;9.60;99.90;;;;;;5113902;28;20432;-67
2022/10/05 02:37:10;;;;;;;11.53;4.27;;;9.60;99.90;;;;;;5113340;28;20417;-66
2022/10/05 02:39:46;;;;;;;9.87;4.03;;;9.60;99.90;;;;;;5103862;28;20488;-66
2022/10/05 02:42:25;;;;;;;9.90;5.00;;;9.60;99.90;;;;;;5091469;28;20437;-66
2022/10/05 02:45:09;;;;;;;8.33;4.60;;;9.60;99.90;;;;;;5092874;28;20930;-66
2022/10/05 02:48:05;;;;;;;9.07;4.53;;;9.60;99.90;;;;;;5103953;28;20417;-66
2022/10/05 02:50:52;;;;;;;15.53;6.67;;;9.50;99.90;;;;;;5080173;28;20411;-66
2022/10/05 02:53:30;;;;;;;7.33;4.37;;;9.40;99.90;;;;;;5095467;28;20869;-66
2022/10/05 02:56:22;;;;;;;13.90;5.70;;;9.30;99.90;;;;;;5094203;28;20437;-66
2022/10/05 02:59:02;;;;;;;8.10;5.50;;;9.20;99.90;;;;;;5088600;28;20579;-66
2022/10/05 03:01:36;;;;;;;8.83;5.20;;;9.20;99.90;;;;;;5098704;28;20547;-66
2022/10/05 03:04:13;;;;;;;11.47;6.10;;;9.30;99.90;;;;;;5113446;28;20446;-66
2022/10/05 03:07:13;;;;;;;9.10;5.10;;;9.30;99.90;;;;;;5091722;28;20410;-66
2022/10/05 03:10:12;;;;;;;11.47;6.07;;;9.20;99.90;;;;;;5065834;28;20437;-66
2022/10/05 03:12:53;;;;;;;9.77;6.03;;;9.20;99.90;;;;;;5037438;28;20431;-66
2022/10/05 03:15:31;;;;;;;10.77;6.17;;;9.20;99.90;;;;;;5110840;28;20417;-66
2022/10/05 03:18:12;;;;;;;11.17;5.83;;;9.20;99.90;;;;;;5090934;28;20466;-66
2022/10/05 03:20:40;;;;;;;11.30;5.23;;;9.10;99.90;;;;;;5091449;28;20451;-66
2022/10/05 03:23:13;;;;;;;7.57;4.47;;;9.00;99.90;;;;;;5099455;28;20406;-66
2022/10/05 03:26:20;;;;;;;12.83;5.80;;;8.90;99.90;;;;;;5092048;28;20568;-66
2022/10/05 03:28:52;;;;;;;7.43;4.43;;;8.80;99.90;;;;;;5109775;28;20440;-66
2022/10/05 03:31:21;;;;;;;8.67;5.13;;;8.70;99.90;;;;;;5094355;28;20575;-66
2022/10/05 03:34:01;;;;;;;11.57;6.10;;;8.60;99.90;;;;;;5110760;28;20455;-66
2022/10/05 03:36:51;;;;;;;9.93;5.07;;;8.50;99.90;;;;;;5100322;28;20501;-66
2022/10/05 03:39:27;;;;;;;21.23;5.40;;;8.40;99.90;;;;;;5101025;28;20530;-66
2022/10/05 03:41:55;;;;;;;9.70;4.90;;;8.40;99.90;;;;;;5099736;28;20436;-66
2022/10/05 03:44:49;;;;;;;10.03;5.70;;;8.30;99.90;;;;;;5111947;28;20418;-66
2022/10/05 03:47:44;;;;;;;12.00;5.87;;;8.30;99.90;;;;;;5094203;28;20418;-66
2022/10/05 03:50:42;;;;;;;10.27;4.80;;;8.30;99.90;;;;;;5094533;28;20961;-66
2022/10/05 03:53:21;;;;;;;7.50;4.60;;;8.20;99.90;;;;;;5106963;28;20466;-66
2022/10/05 03:55:55;;;;;;;9.00;4.67;;;8.10;99.90;;;;;;5095127;28;20724;-66
2022/10/05 03:58:25;;;;;;;8.73;4.60;;;8.10;99.90;;;;;;5084681;28;20553;-66
2022/10/05 04:00:58;;;;;;;11.07;5.47;;;8.00;99.90;;;;;;5100695;28;20525;-66
2022/10/05 04:03:35;;;;;;;8.47;4.20;;;8.00;99.90;;;;;;5099221;28;20777;-66
2022/10/05 04:06:10;;;;;;;13.37;5.90;;;8.00;99.90;;;;;;5104476;28;20501;-66
2022/10/05 04:09:07;;;;;;;9.70;5.67;;;8.00;99.90;;;;;;5102436;28;20421;-66
2022/10/05 04:11:41;;;;;;;9.80;6.20;;;8.10;99.90;;;;;;5104971;28;20441;-66
2022/10/05 04:14:35;;;;;;;14.57;8.03;;;8.30;99.90;;;;;;5109402;28;20410;-67
2022/10/05 04:17:05;;;;;;;15.17;7.00;;;8.50;99.90;;;;;;5094151;28;20430;-66
2022/10/05 04:19:39;;;;;;;15.47;7.80;;;8.60;99.90;;;;;;5092492;28;20422;-66
2022/10/05 04:22:14;;;;;;;13.27;7.23;;;8.60;99.90;;;;;;5077937;28;20441;-65
2022/10/05 04:24:40;;;;;;;10.83;7.57;;;8.70;99.90;;;;;;5076566;28;20407;-66
2022/10/05 04:27:08;;;;;;;15.87;7.27;;;8.70;99.90;;;;;;5099746;28;20406;-66
2022/10/05 04:29:54;;;;;;;17.33;7.67;;;8.70;99.90;;;;;;5111132;28;20550;-66
2022/10/05 04:32:30;;;;;;;15.83;9.33;;;8.70;99.90;;;;;;5111042;28;20421;-66
2022/10/05 04:35:29;;;;;;;11.70;5.83;;;8.70;99.90;;;;;;5111875;28;20409;-66
2022/10/05 04:37:54;;;;;;;12.47;5.77;;;8.60;99.90;;;;;;5089905;28;20453;-66
2022/10/05 04:40:29;;;;;;;9.53;6.13;;;8.60;99.90;;;;;;5111479;28;20421;-66
2022/10/05 04:43:08;;;;;;;17.00;6.07;;;8.60;99.90;;;;;;5109804;28;20211;-66
2022/10/05 04:46:10;;;;;;;14.43;6.67;;;8.60;99.90;;;;;;5110716;28;20463;-66
2022/10/05 04:49:02;;;;;;;12.97;6.07;;;8.50;99.90;;;;;;5111725;28;20428;-67
2022/10/05 04:51:33;;;;;;;15.30;6.53;;;8.40;99.90;;;;;;5098088;28;20408;-66
2022/10/05 04:54:17;;;;;;;15.40;8.20;;;8.40;99.90;;;;;;5086391;28;20436;-66
2022/10/05 04:56:52;;;;;;;21.40;9.67;;;8.50;99.90;;;;;;5104822;28;20428;-66
2022/10/05 04:59:42;;;;;;;16.00;9.00;;;8.60;99.90;;;;;;5083641;28;20469;-66
2022/10/05 05:02:36;;;;;;;14.63;7.30;;;8.70;99.90;;;;;;5079798;28;20506;-66
2022/10/05 05:05:20;;;;;;;14.97;7.73;;;8.80;99.90;;;;;;5085267;28;20439;-66
2022/10/05 05:08:09;;;;;;;16.97;7.63;;;8.80;99.90;;;;;;5111391;28;20424;-66
2022/10/05 05:10:55;;;;;;;15.60;7.93;;;8.80;99.90;;;;;;5085101;28;20486;-66
2022/10/05 05:13:40;;;;;;;18.70;8.37;;;8.80;99.90;;;;;;5110655;28;20416;-66
2022/10/05 05:16:36;;;;;;;13.10;7.43;;;8.70;99.90;;;;;;5080402;28;20418;-66
2022/10/05 05:19:40;;;;;;;17.27;7.30;;;8.60;99.90;;;;;;5108880;28;20515;-66
2022/10/05 05:22:39;;;;;;;17.07;7.90;;;8.50;99.90;;;;;;5108372;28;20463;-66
2022/10/05 05:25:35;;;;;;;13.33;6.80;;;8.50;99.90;;;;;;5079624;28;20422;-66
2022/10/05 05:28:14;;;;;;;13.83;7.47;;;8.40;99.90;;;;;;5114440;28;20417;-66
2022/10/05 05:30:54;;;;;;;14.00;6.83;;;8.30;99.90;;;;;;5090461;28;20546;-66
2022/10/05 05:33:32;;;;;;;14.70;7.83;;;8.30;99.90;;;;;;5113230;28;20425;-66
2022/10/05 05:36:09;;;;;;;13.90;7.03;;;8.30;99.90;;;;;;5113845;28;20417;-66
2022/10/05 05:38:48;;;;;;;18.83;6.87;;;8.20;99.90;;;;;;5113446;28;21014;-66
2022/10/05 05:41:24;;;;;;;17.27;7.87;;;8.20;99.90;;;;;;5112708;28;20424;-66
2022/10/05 05:44:13;;;;;;;13.70;6.87;;;8.20;99.90;;;;;;5092321;28;20442;-66
2022/10/05 05:46:45;;;;;;;12.40;7.03;;;8.20;99.90;;;;;;5098661;28;20414;-66
2022/10/05 05:49:38;;;;;;;12.60;7.40;;;8.20;99.90;;;;;;5114623;28;21080;-66
2022/10/05 05:52:16;;;;;;;11.43;6.93;;;8.20;99.90;;;;;;5084421;28;20782;-66
2022/10/05 05:54:50;;;;;;;13.93;8.23;;;8.20;99.90;;;;;;5099026;28;20414;-66
2022/10/05 05:57:18;;;;;;;13.30;7.40;;;8.20;99.90;;;;;;5110324;28;20451;-66
2022/10/05 06:00:04;;;;;;;11.27;5.70;;;8.10;99.90;;;;;;5088451;28;20780;-66
2022/10/05 06:02:41;;;;;;;14.53;6.40;;;8.10;99.90;;;;;;5076776;28;20414;-66
2022/10/05 06:05:48;;;;;;;13.20;6.57;;;8.00;99.90;;;;;;5082134;28;20403;-66
2022/10/05 06:08:36;;;;;;;11.90;6.20;;;8.00;99.90;;;;;;5054182;28;20483;-66
2022/10/05 06:11:09;;;;;;;13.80;7.50;;;7.90;99.90;;;;;;5080509;28;20494;-66
2022/10/05 06:13:40;;;;;;;14.23;6.70;;;7.90;99.90;;;;;;5087393;28;20418;-66
2022/10/05 06:16:13;;;;;;;13.77;6.77;;;7.90;99.90;;;;;;5085068;28;20495;-66
2022/10/05 06:18:43;;;;;;;13.90;6.50;;;7.90;99.90;;;;;;5086951;28;20581;-67
2022/10/05 06:21:34;;;;;;;14.90;7.77;;;7.90;99.90;;;;;;5085308;28;20534;-66
2022/10/05 06:24:15;;;;;;;12.97;5.80;;;8.00;99.90;;;;;;5092300;28;20422;-67
2022/10/05 06:27:02;;;;;;;11.13;5.83;;;8.00;99.90;;;;;;5094440;28;20411;-67
2022/10/05 06:29:56;;;;;;;14.17;6.30;;;8.00;99.90;;;;;;5106343;28;20819;-67
2022/10/05 06:32:30;;;;;;;10.40;6.67;;;8.10;99.90;;;;;;5073287;28;20425;-67
2022/10/05 06:35:14;;;;;;;16.40;6.90;;;8.10;99.90;;;;;;5122232;28;20417;-68
2022/10/05 06:38:09;;;;;;;10.60;6.60;;;8.20;99.90;;;;;;5109066;28;20461;-67
2022/10/05 06:40:41;;;;;;;17.57;7.93;;;8.30;99.90;;;;;;5090718;28;20719;-66
2022/10/05 06:43:12;;;;;;;13.03;8.13;;;8.50;99.90;;;;;;5123739;28;20413;-68
2022/10/05 06:46:09;;;;;;;18.73;8.60;;;8.70;99.90;;;;;;5115605;28;20418;-67
2022/10/05 06:48:56;;;;;;;15.00;6.67;;;8.80;99.90;;;;;;5093118;28;20452;-67
2022/10/05 06:51:53;;;;;;;12.53;7.10;;;9.00;99.90;;;;;;5098205;28;20513;-66
2022/10/05 06:54:31;;;;;;;13.10;7.07;;;9.30;99.90;;;;;;5096236;28;20502;-66
2022/10/05 06:57:20;;;;;;;11.90;5.30;;;9.50;99.90;;;;;;5103887;28;20449;-66
2022/10/05 07:00:02;;;;;;;9.30;5.20;;;9.70;99.90;;;;;;5085134;28;20920;-66
2022/10/05 07:02:44;;;;;;;10.70;6.37;;;9.90;99.90;;;;;;5090196;28;20432;-66
2022/10/05 07:05:09;;;;;;;12.80;6.23;;;10.10;99.90;;;;;;5104763;28;20433;-66
2022/10/05 07:07:38;;;;;;;35.87;5.57;;;10.30;99.90;;;;;;5107245;28;20740;-66
2022/10/05 07:10:23;;;;;;;11.90;5.37;;;10.60;99.90;;;;;;5112418;28;20675;-66
2022/10/05 07:13:01;;;;;;;5.70;3.63;;;10.70;99.90;;;;;;5095588;28;20505;-66
2022/10/05 07:15:26;;;;;;;6.80;4.30;;;10.90;99.90;;;;;;5112422;28;20413;-66
2022/10/05 07:18:15;;;;;;;6.60;3.87;;;11.10;99.90;;;;;;5092766;28;20472;-69
2022/10/05 07:20:50;;;;;;;8.23;3.70;;;11.30;99.90;;;;;;5074997;28;20613;-66
2022/10/05 07:23:40;;;;;;;8.53;4.23;;;11.50;99.90;;;;;;5110372;28;20459;-66
2022/10/05 07:26:35;;;;;;;5.77;3.10;;;11.80;99.90;;;;;;5103047;28;20406;-66
2022/10/05 07:29:06;;;;;;;7.23;3.03;;;12.10;99.90;;;;;;5103617;28;20487;-66
2022/10/05 07:31:47;;;;;;;4.63;2.90;;;12.40;99.90;;;;;;5104624;28;20447;-66
2022/10/05 07:34:36;;;;;;;7.33;3.07;;;12.70;99.90;;;;;;5091951;28;20414;-67
2022/10/05 07:40:19;;;;;;;3.37;2.20;;;13.40;99.90;;;;;;5094757;28;20464;-66
2022/10/05 07:42:55;;;;;;;4.73;2.47;;;13.90;99.90;;;;;;5104976;28;20414;-67
2022/10/05 07:45:27;;;;;;;3.27;2.10;;;14.50;99.90;;;;;;5087562;28;20815;-66
2022/10/05 07:47:55;;;;;;;6.57;2.70;;;15.30;99.90;;;;;;5108067;28;20474;-66
2022/10/05 07:50:39;;;;;;;4.03;1.43;;;16.10;99.90;;;;;;5102632;28;20406;-67
2022/10/05 07:53:24;;;;;;;4.20;2.20;;;16.80;99.90;;;;;;5101632;28;20412;-67
2022/10/05 07:55:57;;;;;;;2.40;1.47;;;17.80;99.90;;;;;;5092507;28;20419;-66
2022/10/05 07:58:35;;;;;;;5.77;1.60;;;18.20;99.90;;;;;;5091554;28;20461;-67
2022/10/05 08:01:07;;;;;;;3.30;1.70;;;18.70;99.90;;;;;;5101911;28;20906;-67
2022/10/05 08:03:48;;;;;;;3.33;1.63;;;18.70;99.90;;;;;;5095849;28;20410;-67
2022/10/05 08:06:56;;;;;;;3.73;1.77;;;18.90;99.90;;;;;;5097493;28;21244;-67
2022/10/05 08:09:47;;;;;;;3.50;1.53;;;19.10;99.60;;;;;;5106197;28;20508;-67
2022/10/05 08:12:30;;;;;;;5.50;1.90;;;19.00;98.90;;;;;;5105027;28;20412;-67
2022/10/05 08:15:15;;;;;;;3.10;1.43;;;19.00;99.80;;;;;;5110785;28;20413;-67
2022/10/05 08:17:52;;;;;;;3.10;1.67;;;19.20;99.30;;;;;;5100071;28;20460;-67
2022/10/05 08:20:39;;;;;;;2.93;1.53;;;19.20;99.50;;;;;;5099359;28;20665;-67
2022/10/05 08:23:16;;;;;;;2.03;1.43;;;19.30;99.00;;;;;;5109993;28;20431;-67
2022/10/05 08:25:56;;;;;;;2.43;1.33;;;19.50;98.50;;;;;;5100913;28;20502;-67
2022/10/05 08:28:39;;;;;;;10.50;1.37;;;19.30;98.80;;;;;;5086745;28;20492;-66
2022/10/05 08:31:07;;;;;;;2.47;1.50;;;19.50;97.60;;;;;;5083807;28;20583;-67
2022/10/05 08:33:53;;;;;;;3.43;1.70;;;19.60;97.60;;;;;;5090219;28;20414;-66
2022/10/05 08:36:28;;;;;;;2.63;1.80;;;19.50;98.10;;;;;;5086490;28;20921;-66
2022/10/05 08:38:58;;;;;;;3.13;1.40;;;19.40;97.90;;;;;;5084180;28;20482;-66
2022/10/05 08:41:51;;;;;;;3.57;1.70;;;19.40;97.80;;;;;;5088543;28;20494;-66
2022/10/05 08:44:35;;;;;;;2.20;1.20;;;19.60;98.10;;;;;;5065750;28;20517;-66
2022/10/05 08:47:15;;;;;;;3.23;1.30;;;19.80;97.00;;;;;;5088687;28;20422;-67
2022/10/05 08:50:16;;;;;;;1.93;1.13;;;19.80;97.10;;;;;;5107026;28;20436;-67
2022/10/05 08:53:06;;;;;;;3.57;1.30;;;19.90;97.50;;;;;;5010506;28;20441;-67
2022/10/05 08:55:47;;;;;;;2.57;1.30;;;20.00;96.50;;;;;;5074102;28;20909;-67
2022/10/05 08:58:42;;;;;;;2.20;1.23;;;19.80;97.30;;;;;;5095984;28;20458;-67
2022/10/05 09:01:46;;;;;;;2.53;1.53;;;19.60;98.30;;;;;;5090577;28;20743;-68
2022/10/05 09:04:14;;;;;;;2.23;1.00;;;19.50;98.40;;;;;;5055692;28;20451;-67
2022/10/05 09:07:12;;;;;;;2.00;1.07;;;19.40;97.80;;;;;;5095503;28;20433;-67
2022/10/05 09:10:12;;;;;;;2.00;0.97;;;19.50;97.80;;;;;;5095360;28;20417;-68
2022/10/05 09:12:53;;;;;;;2.53;1.23;;;19.50;98.30;;;;;;5111056;28;20413;-68
2022/10/05 09:15:58;;;;;;;2.37;1.37;;;19.60;97.90;;;;;;5097908;28;20427;-68
2022/10/05 09:18:44;;;;;;;1.80;0.80;;;19.40;98.00;;;;;;5108723;28;20516;-67
2022/10/05 09:21:29;;;;;;;1.50;0.70;;;19.20;98.00;;;;;;5055157;28;20963;-66
2022/10/05 09:24:18;;;;;;;2.60;1.30;;;19.10;98.50;;;;;;5094640;28;20739;-66
2022/10/05 09:27:31;;;;;;;1.70;1.00;;;19.00;98.30;;;;;;5092902;28;20422;-66
2022/10/05 09:30:13;;;;;;;1.93;1.10;;;18.70;98.90;;;;;;4990754;28;20453;-66
2022/10/05 09:32:51;;;;;;;1.87;1.00;;;18.50;99.30;;;;;;4992600;28;20923;-66
2022/10/05 09:35:56;;;;;;;2.03;1.03;;;18.40;99.70;;;;;;5052793;28;20472;-66
2022/10/05 09:38:56;;;;;;;2.80;1.40;;;18.20;99.90;;;;;;5083307;28;20466;-67
2022/10/05 09:41:48;;;;;;;3.13;1.57;;;18.20;99.90;;;;;;5088541;28;20479;-66
2022/10/05 09:44:45;;;;;;;2.00;1.07;;;18.30;99.90;;;;;;5085995;28;20904;-67
2022/10/05 09:47:46;;;;;;;2.13;1.17;;;18.20;99.90;;;;;;5091176;28;20453;-66
2022/10/05 09:50:35;;;;;;;2.60;1.20;;;18.20;99.90;;;;;;5089794;28;20421;-66
2022/10/05 09:53:47;;;;;;;2.00;1.00;;;18.20;99.90;;;;;;5047312;28;20505;-67
2022/10/05 09:56:34;;;;;;;2.40;0.97;;;18.30;99.90;;;;;;5083694;28;20414;-67
2022/10/05 09:59:18;;;;;;;11.33;1.43;;;18.40;99.90;;;;;;5085327;28;20471;-66
2022/10/05 10:02:02;;;;;;;2.80;1.00;;;18.40;99.90;;;;;;5103485;28;20551;-66
2022/10/05 10:04:47;;;;;;;25.50;1.27;;;18.50;99.90;;;;;;5112524;28;20413;-66
2022/10/05 10:07:40;;;;;;;4.20;1.47;;;18.60;99.90;;;;;;5100548;28;20412;-65
2022/10/05 10:10:37;;;;;;;3.50;1.47;;;18.70;99.90;;;;;;5100709;28;20763;-66
2022/10/05 10:13:40;;;;;;;2.50;1.27;;;18.90;99.90;;;;;;5090935;28;20455;-66
2022/10/05 10:16:49;;;;;;;11.13;1.30;;;19.10;99.80;;;;;;5074845;28;20538;-65
2022/10/05 10:19:51;;;;;;;2.63;0.90;;;19.30;99.40;;;;;;5104581;28;20470;-66
2022/10/05 10:22:32;;;;;;;2.80;1.37;;;19.40;99.90;;;;;;5093362;28;20410;-66
2022/10/05 10:25:09;;;;;;;2.53;1.40;;;19.50;99.90;;;;;;5099022;28;20514;-68
2022/10/05 10:27:54;;;;;;;2.30;1.30;;;19.70;99.80;;;;;;5103149;28;20522;-67
2022/10/05 10:30:43;;;;;;;2.03;0.90;;;19.80;99.30;;;;;;5104724;28;20440;-67
2022/10/05 10:33:27;;;;;;;1.80;0.90;;;20.10;99.60;;;;;;5091175;28;20417;-67
2022/10/05 10:35:59;;;;;;;3.77;1.17;;;20.10;98.90;;;;;;5102208;28;20508;-67
2022/10/05 10:38:59;;;;;;;1.90;1.20;;;20.40;98.90;;;;;;5094786;28;20465;-67
2022/10/05 10:41:42;;;;;;;3.00;1.27;;;20.50;98.60;;;;;;5092464;28;20421;-66
2022/10/05 10:44:26;;;;;;;1.60;0.70;;;20.50;97.70;;;;;;5085963;28;20718;-68
2022/10/05 10:47:33;;;;;;;3.27;1.60;;;20.60;97.70;;;;;;5078701;28;20415;-68
2022/10/05 10:50:17;;;;;;;1.57;1.00;;;20.60;97.30;;;;;;5090510;28;20418;-66
2022/10/05 10:53:20;;;;;;;3.27;0.90;;;20.70;97.20;;;;;;5099005;28;20437;-66
2022/10/05 10:56:27;;;;;;;3.00;1.73;;;20.80;97.80;;;;;;5099180;28;20921;-66
2022/10/05 10:59:04;;;;;;;1.90;1.03;;;20.80;98.00;;;;;;5078293;28;20477;-66
2022/10/05 11:01:34;;;;;;;2.23;1.30;;;20.90;97.60;;;;;;5079729;28;20440;-66
2022/10/05 11:04:22;;;;;;;2.10;1.43;;;20.80;97.60;;;;;;5090735;28;20418;-66
2022/10/05 11:06:53;;;;;;;1.97;1.07;;;21.00;97.90;;;;;;5093203;28;20492;-66
2022/10/05 11:09:38;;;;;;;3.07;1.23;;;20.90;97.50;;;;;;5112670;28;20512;-66
2022/10/05 11:12:16;;;;;;;2.47;1.13;;;21.10;98.40;;;;;;5112261;28;20417;-66
2022/10/05 11:15:14;;;;;;;2.70;1.27;;;21.20;98.40;;;;;;5099906;28;20424;-68
2022/10/05 11:17:54;;;;;;;2.50;1.00;;;21.50;97.70;;;;;;5072380;28;20578;-67
2022/10/05 11:20:52;;;;;;;1.80;0.90;;;21.60;97.20;;;;;;5093253;28;20437;-68
2022/10/05 11:23:55;;;;;;;2.77;1.20;;;21.70;97.30;;;;;;5083877;28;20410;-70
2022/10/05 11:26:39;;;;;;;6.30;1.60;;;21.90;96.90;;;;;;5084231;28;20458;-68
2022/10/05 11:29:25;;;;;;;2.10;1.17;;;21.90;97.20;;;;;;5088216;28;20413;-68
2022/10/05 11:32:22;;;;;;;2.03;1.10;;;21.90;96.60;;;;;;5078978;28;20545;-67
2022/10/05 11:35:23;;;;;;;2.30;1.20;;;21.80;97.40;;;;;;5088202;28;20418;-67
2022/10/05 11:38:04;;;;;;;2.17;1.10;;;21.80;97.20;;;;;;5087411;28;21019;-67
2022/10/05 11:40:48;;;;;;;2.27;1.17;;;22.00;97.30;;;;;;5088957;28;20403;-69
2022/10/05 11:43:50;;;;;;;2.53;1.27;;;22.20;96.90;;;;;;5071701;28;20900;-68
2022/10/05 11:46:15;;;;;;;6.70;0.87;;;22.40;96.70;;;;;;5096705;28;20499;-68
2022/10/05 11:48:44;;;;;;;2.07;1.03;;;22.60;96.00;;;;;;5079432;28;20541;-67
2022/10/05 11:51:28;;;;;;;1.80;0.97;;;22.80;95.90;;;;;;5096549;28;20185;-68
2022/10/05 11:54:20;;;;;;;2.07;1.03;;;22.80;95.10;;;;;;5111842;28;20430;-68
2022/10/05 11:57:17;;;;;;;2.70;1.10;;;22.70;95.60;;;;;;5042792;28;20426;-68
2022/10/05 11:59:53;;;;;;;2.57;1.07;;;22.70;95.30;;;;;;5077247;28;20468;-69
2022/10/05 12:02:40;;;;;;;1.77;0.90;;;22.80;95.10;;;;;;5074742;28;20447;-68
2022/10/05 12:05:31;;;;;;;1.70;0.90;;;23.00;95.50;;;;;;5077354;28;20493;-69
2022/10/05 12:08:30;;;;;;;2.23;1.20;;;23.10;94.60;;;;;;5083502;28;20521;-69
2022/10/05 12:11:16;;;;;;;4.23;1.60;;;23.20;93.80;;;;;;5070266;28;20429;-68
2022/10/05 12:13:54;;;;;;;1.87;0.73;;;23.40;93.60;;;;;;5092188;28;20709;-69
2022/10/05 12:16:52;;;;;;;2.03;0.90;;;23.40;92.50;;;;;;5090207;28;20421;-68
2022/10/05 12:19:30;;;;;;;4.50;0.70;;;23.40;93.10;;;;;;5078272;28;20481;-69
2022/10/05 12:22:26;;;;;;;2.37;0.80;;;23.30;84.80;;;;;;5053558;28;20959;-69
2022/10/05 12:25:16;;;;;;;1.73;0.70;;;23.20;83.80;;;;;;5074883;28;20418;-69
2022/10/05 12:27:45;;;;;;;2.03;0.60;;;23.10;81.20;;;;;;5100744;28;20428;-69
2022/10/05 12:30:32;;;;;;;1.87;0.77;;;23.00;80.30;;;;;;5109932;28;20448;-69
2022/10/05 12:33:19;;;;;;;2.00;0.73;;;23.00;78.10;;;;;;5110068;28;20413;-69
2022/10/05 12:35:57;;;;;;;2.33;0.57;;;23.10;78.70;;;;;;5111509;28;20942;-67
2022/10/05 12:38:31;;;;;;;1.50;0.60;;;23.00;76.60;;;;;;5087419;28;20460;-66
2022/10/05 12:41:00;;;;;;;2.03;0.80;;;23.00;77.00;;;;;;5090999;28;20451;-66
2022/10/05 12:43:47;;;;;;;1.93;0.60;;;23.20;80.10;;;;;;5075486;28;20411;-66
2022/10/05 12:46:31;;;;;;;1.90;0.77;;;23.10;80.00;;;;;;5081265;28;20414;-66
2022/10/05 12:49:00;;;;;;;1.70;0.60;;;23.10;80.20;;;;;;5082572;28;20900;-66
2022/10/05 12:51:43;;;;;;;2.70;0.80;;;23.20;79.40;;;;;;5094233;28;20913;-66
2022/10/05 12:54:36;;;;;;;2.10;0.70;;;23.30;78.20;;;;;;5098073;28;20924;-66
2022/10/05 12:57:17;;;;;;;1.40;0.60;;;23.30;76.60;;;;;;5098285;28;20497;-66
2022/10/05 13:00:08;;;;;;;1.40;0.60;;;23.20;77.30;;;;;;5088435;28;20899;-66
2022/10/05 13:02:47;;;;;;;14.13;0.63;;;23.10;75.70;;;;;;5110683;28;20436;-66
2022/10/05 13:05:18;;;;;;;1.73;0.70;;;23.10;76.90;;;;;;5111697;28;20850;-66
2022/10/05 13:08:02;;;;;;;1.53;0.60;;;23.10;76.00;;;;;;5082888;28;20409;-66
2022/10/05 13:10:36;;;;;;;1.40;0.60;;;23.00;76.60;;;;;;5083457;28;20413;-67
2022/10/05 13:13:20;;;;;;;1.90;0.60;;;23.00;75.80;;;;;;5085463;28;20409;-66
2022/10/05 13:16:07;;;;;;;1.60;0.63;;;22.90;75.90;;;;;;5098755;28;20413;-66
2022/10/05 13:18:54;;;;;;;1.60;0.60;;;22.90;75.90;;;;;;5107505;28;20452;-66
2022/10/05 13:21:47;;;;;;;1.90;0.60;;;22.80;76.50;;;;;;5079752;28;20426;-66
2022/10/05 13:24:25;;;;;;;2.53;0.97;;;22.90;77.30;;;;;;5086314;28;20415;-66
2022/10/05 13:27:07;;;;;;;5.33;1.30;;;22.90;78.90;;;;;;5083205;28;20908;-66
2022/10/05 13:29:51;;;;;;;8.63;0.83;;;22.80;78.90;;;;;;5100557;28;20980;-65
2022/10/05 13:32:35;;;;;;;1.67;0.80;;;22.90;78.10;;;;;;5089935;28;20504;-66
2022/10/05 13:35:45;;;;;;;1.57;0.60;;;22.80;77.50;;;;;;5097559;28;20461;-66
2022/10/05 13:38:52;;;;;;;1.43;0.60;;;22.80;78.50;;;;;;5048582;28;20831;-66
2022/10/05 13:41:24;;;;;;;1.50;0.60;;;22.70;76.80;;;;;;5083048;28;20449;-67
2022/10/05 13:44:23;;;;;;;2.10;0.70;;;22.60;78.20;;;;;;5081783;28;20423;-66
2022/10/05 13:47:07;;;;;;;2.13;0.70;;;22.70;78.60;;;;;;5081248;28;20426;-65
2022/10/05 13:50:14;;;;;;;1.60;0.60;;;22.70;78.70;;;;;;5084411;28;20421;-66
2022/10/05 13:52:58;;;;;;;3.40;0.90;;;22.70;81.80;;;;;;5052300;28;20915;-66
2022/10/05 13:55:45;;;;;;;5.73;1.00;;;22.70;81.80;;;;;;5085948;28;20414;-67
2022/10/05 13:58:34;;;;;;;1.87;0.90;;;22.80;81.70;;;;;;5075043;28;20478;-67
2022/10/05 14:02:01;;;;;;;1.57;0.70;;;22.80;80.10;;;;;;5082591;28;20434;-65
2022/10/05 14:05:17;;;;;;;4.80;1.23;;;22.70;79.00;;;;;;5012735;28;20428;-67
2022/10/05 14:08:02;;;;;;;5.10;0.80;;;22.70;76.70;;;;;;5002945;28;20568;-66
2022/10/05 14:11:11;;;;;;;1.50;0.70;;;22.60;78.30;;;;;;5085249;28;20410;-66
2022/10/05 14:13:45;;;;;;;4.17;0.80;;;22.60;79.10;;;;;;5077898;28;20454;-66
2022/10/05 14:16:22;;;;;;;1.37;0.50;;;22.70;76.90;;;;;;5087565;28;20438;-66